Time;durP1;ratioP1;P1;durP2;ratioP2;P2;SDS_P1;SDS_P2;PMS_P1;PMS_P2;Temp;Humidity;BMP_temperature;BMP_pressure;BME280_temperature;BME280_humidity;BME280_pressure;Samples;Min_cycle;Max_cycle;Signal;HPM_P1;HPM_P2
2021/06/18 00:02:03;;;;;;;12.33;8.63;;;;;;;-144.99;67.13;52048.63;5087986;28;20259;-78
2021/06/18 00:04:30;;;;;;;8.57;6.80;;;;;;;-144.99;67.31;52032.31;5083219;28;20216;-79
2021/06/18 00:06:57;;;;;;;7.90;7.10;;;;;;;-144.99;67.40;52036.38;5086307;28;20265;-80
2021/06/18 00:09:24;;;;;;;8.33;7.53;;;;;;;-144.99;67.68;52101.59;5091361;28;20314;-78
2021/06/18 00:11:50;;;;;;;7.80;6.87;;;;;;;-144.99;67.88;52036.38;5094697;28;20309;-80
2021/06/18 00:14:17;;;;;;;9.47;7.47;;;;;;;-144.99;67.88;52071.03;5084457;28;20241;-79
2021/06/18 00:16:45;;;;;;;11.80;7.93;;;;;;;-144.99;67.96;52046.56;5088646;28;20211;-78
2021/06/18 00:19:12;;;;;;;8.87;7.47;;;;;;;-144.99;68.05;52105.69;5086881;28;20266;-80
2021/06/18 00:21:39;;;;;;;10.17;7.60;;;;;;;-144.99;68.28;52079.19;5089236;28;20207;-80
2021/06/18 00:24:06;;;;;;;10.97;8.17;;;;;;;-144.99;68.42;52093.44;5087733;28;20286;-79
2021/06/18 00:26:33;;;;;;;10.97;8.43;;;;;;;-144.99;68.50;52048.63;5088852;28;20221;-79
2021/06/18 00:29:00;;;;;;;12.33;8.93;;;;;;;-144.99;68.75;52073.06;5090475;28;20287;-79
2021/06/18 00:31:29;;;;;;;16.70;8.43;;;;;;;-144.99;68.83;52052.69;5090227;28;20281;-81
2021/06/18 00:33:57;;;;;;;10.57;8.40;;;;;;;-144.99;69.07;52069.00;5091651;28;20255;-79
2021/06/18 00:36:24;;;;;;;12.13;8.87;;;;;;;-144.99;69.21;52066.97;5091640;28;20220;-81
2021/06/18 00:38:51;;;;;;;14.07;9.33;;;;;;;-144.99;69.32;52085.31;5092120;28;20210;-80
2021/06/18 00:41:18;;;;;;;10.27;8.00;;;;;;;-144.99;69.60;52073.06;5091701;28;20237;-81
2021/06/18 00:43:45;;;;;;;10.87;9.77;;;;;;;-144.99;69.57;52056.78;5089470;28;20206;-80
2021/06/18 00:46:13;;;;;;;13.93;10.63;;;;;;;-144.99;69.62;52066.97;5085352;28;20210;-79
2021/06/18 00:48:40;;;;;;;13.83;10.50;;;;;;;-144.99;69.86;52064.91;5086252;28;20210;-78
2021/06/18 00:51:08;;;;;;;10.23;9.23;;;;;;;-144.99;69.97;52069.00;5085989;28;20331;-78
2021/06/18 00:53:35;;;;;;;10.33;8.73;;;;;;;-144.99;70.38;52089.38;5086980;28;20283;-77
2021/06/18 00:56:02;;;;;;;10.80;8.30;;;;;;;-144.99;70.28;52071.03;5084775;28;20303;-79
2021/06/18 00:58:29;;;;;;;12.20;8.80;;;;;;;-144.99;70.14;52064.91;5089347;28;20327;-78
2021/06/18 01:00:56;;;;;;;11.73;9.27;;;;;;;-144.99;70.45;52073.06;5087795;28;20239;-77
2021/06/18 01:03:23;;;;;;;12.53;8.60;;;;;;;-144.99;70.75;52034.34;5085589;28;20242;-79
2021/06/18 01:05:51;;;;;;;13.23;11.77;;;;;;;-144.99;71.28;52077.16;5089673;28;20590;-79
2021/06/18 01:08:24;;;;;;;15.33;10.70;;;;;;;-144.99;71.85;52073.06;5088793;28;20304;-79
2021/06/18 01:11:08;;;;;;;12.07;10.10;;;;;;;-144.99;72.22;52073.06;5082554;28;20270;-79
2021/06/18 01:13:58;;;;;;;12.67;9.83;;;;;;;-144.99;72.25;52073.06;5086972;28;20217;-78
2021/06/18 01:16:34;;;;;;;10.60;9.40;;;;;;;-144.99;72.42;52020.09;5087988;28;20307;-79
2021/06/18 01:19:09;;;;;;;10.70;8.60;;;;;;;-144.99;72.61;52044.53;5090363;28;20320;-79
2021/06/18 01:21:39;;;;;;;20.63;11.27;;;;;;;-144.99;72.81;52044.53;5079468;28;20280;-78
2021/06/18 01:24:27;;;;;;;14.87;12.93;;;;;;;-144.99;73.12;52093.44;5083431;28;20224;-79
2021/06/18 01:27:14;;;;;;;15.83;10.63;;;;;;;-144.99;73.24;52056.78;5088761;28;20204;-78
2021/06/18 01:29:45;;;;;;;15.27;10.17;;;;;;;-144.99;73.58;52052.69;5088371;28;20259;-79
2021/06/18 01:32:18;;;;;;;10.53;9.50;;;;;;;-144.99;73.48;52081.22;5088986;28;20224;-79
2021/06/18 01:34:45;;;;;;;11.23;10.07;;;;;;;-144.99;73.52;52054.72;5085511;28;20219;-79
2021/06/18 01:37:14;;;;;;;23.40;15.17;;;;;;;-144.99;73.64;52093.44;5090927;28;20459;-78
2021/06/18 01:39:43;;;;;;;15.70;12.40;;;;;;;-144.99;73.84;52097.53;5087097;28;20245;-76
2021/06/18 01:42:12;;;;;;;17.10;15.03;;;;;;;-144.99;74.25;52085.31;5083273;28;20300;-76
2021/06/18 01:44:39;;;;;;;14.33;12.57;;;;;;;-144.99;74.60;52109.75;5088312;28;20682;-76
2021/06/18 01:47:10;;;;;;;18.63;14.70;;;;;;;-144.99;74.84;52107.72;5089638;28;20216;-77
2021/06/18 01:49:40;;;;;;;20.10;18.03;;;;;;;-144.99;75.21;52048.63;5084641;28;20773;-77
2021/06/18 01:52:09;;;;;;;16.10;14.63;;;;;;;-144.99;75.38;52052.69;5088104;28;20236;-77
2021/06/18 01:54:38;;;;;;;19.00;15.30;;;;;;;-144.99;75.72;52048.63;5086135;28;20234;-78
2021/06/18 01:57:07;;;;;;;16.20;13.53;;;;;;;-144.99;76.08;52060.84;5089298;28;20214;-76
2021/06/18 01:59:38;;;;;;;20.50;14.33;;;;;;;-144.99;76.15;52089.38;5095660;28;20229;-76
2021/06/18 02:02:08;;;;;;;21.23;17.13;;;;;;;-144.99;76.36;52085.31;5092111;28;20319;-77
2021/06/18 02:04:37;;;;;;;23.07;16.60;;;;;;;-144.99;76.50;52064.91;5091331;28;20218;-77
2021/06/18 02:07:05;;;;;;;16.70;15.10;;;;;;;-144.99;76.68;52077.16;5090732;28;20639;-77
2021/06/18 02:09:35;;;;;;;17.60;15.73;;;;;;;-144.99;76.80;52077.16;5091922;28;20318;-76
2021/06/18 02:12:02;;;;;;;17.23;15.60;;;;;;;-144.99;76.77;52081.22;5090742;28;20232;-78
2021/06/18 02:14:31;;;;;;;19.63;15.10;;;;;;;-144.99;76.91;52089.38;5090259;28;20210;-78
2021/06/18 02:17:02;;;;;;;16.80;14.63;;;;;;;-144.99;77.10;52089.38;5089189;28;20216;-77
2021/06/18 02:19:32;;;;;;;18.93;16.37;;;;;;;-144.99;77.23;52093.44;5086476;28;20229;-77
2021/06/18 02:21:59;;;;;;;19.87;17.80;;;;;;;-144.99;77.24;52077.16;5086025;28;20249;-77
2021/06/18 02:24:29;;;;;;;24.33;20.83;;;;;;;-144.99;77.42;52048.63;5087882;28;20257;-77
2021/06/18 02:26:56;;;;;;;21.40;18.60;;;;;;;-144.99;77.47;52101.59;5088143;28;20246;-78
2021/06/18 02:29:23;;;;;;;20.77;17.67;;;;;;;-144.99;77.76;52085.31;5089054;28;20305;-79
2021/06/18 02:31:51;;;;;;;18.63;16.77;;;;;;;-144.99;77.94;52077.16;5089867;28;20307;-78
2021/06/18 02:34:17;;;;;;;19.20;17.40;;;;;;;-144.99;78.13;52073.06;5087168;28;20302;-78
2021/06/18 02:36:46;;;;;;;23.87;21.47;;;;;;;-144.99;78.20;52081.22;5087607;28;20209;-78
2021/06/18 02:39:14;;;;;;;23.57;21.07;;;;;;;-144.99;78.29;52089.38;5091082;28;20277;-78
2021/06/18 02:41:42;;;;;;;19.83;17.83;;;;;;;-144.99;78.36;52101.59;5089424;28;20204;-78
2021/06/18 02:44:09;;;;;;;19.87;17.70;;;;;;;-144.99;78.52;52093.44;5085162;28;20254;-79
2021/06/18 02:46:41;;;;;;;21.03;18.07;;;;;;;-144.99;78.59;52071.03;5086658;28;20309;-79
2021/06/18 02:49:13;;;;;;;25.27;19.30;;;;;;;-144.99;78.61;52077.16;5091169;28;20725;-79
2021/06/18 02:51:42;;;;;;;20.57;18.33;;;;;;;-144.99;78.78;52034.34;5091986;28;20680;-80
2021/06/18 02:54:20;;;;;;;21.43;17.87;;;;;;;-144.99;78.78;52099.56;5090390;28;20209;-77
2021/06/18 02:56:50;;;;;;;20.17;18.00;;;;;;;-144.99;78.75;52089.38;5089995;28;20296;-78
2021/06/18 02:59:26;;;;;;;23.97;19.40;;;;;;;-144.99;78.80;52060.84;5088936;28;20237;-77
2021/06/18 03:01:56;;;;;;;24.47;19.67;;;;;;;-144.99;78.97;52062.88;5087379;28;20519;-77
2021/06/18 03:04:26;;;;;;;20.20;17.87;;;;;;;-144.99;79.14;52105.69;5089119;28;20288;-77
2021/06/18 03:06:57;;;;;;;21.20;18.93;;;;;;;-144.99;79.18;52085.31;5087031;28;20547;-80
2021/06/18 03:09:30;;;;;;;26.37;20.33;;;;;;;-144.99;79.31;52064.91;5087892;28;20236;-79
2021/06/18 03:11:58;;;;;;;22.97;19.77;;;;;;;-144.99;79.53;52079.19;5089829;28;20225;-79
2021/06/18 03:14:29;;;;;;;23.40;21.07;;;;;;;-144.99;79.56;52046.56;5087501;28;20226;-80
2021/06/18 03:16:59;;;;;;;26.03;23.20;;;;;;;-144.99;79.62;52066.97;5084326;28;20213;-73
2021/06/18 03:19:29;;;;;;;23.13;20.33;;;;;;;-144.99;79.68;52101.59;5083597;28;20225;-75
2021/06/18 03:21:58;;;;;;;20.40;18.00;;;;;;;-144.99;79.80;52069.00;5084219;28;20242;-74
2021/06/18 03:24:29;;;;;;;23.20;19.17;;;;;;;-144.99;79.74;52089.38;5083285;28;20211;-74
2021/06/18 03:26:56;;;;;;;24.13;18.70;;;;;;;-144.99;79.67;52097.53;5083636;28;20200;-75
2021/06/18 03:29:24;;;;;;;26.27;21.67;;;;;;;-144.99;79.65;52097.53;5081023;28;20321;-73
2021/06/18 03:31:52;;;;;;;21.37;19.17;;;;;;;-144.99;79.53;52077.16;5083243;28;20235;-74
2021/06/18 03:34:18;;;;;;;22.37;19.40;;;;;;;-144.99;79.30;52109.75;5084540;28;20219;-73
2021/06/18 03:36:46;;;;;;;24.73;22.33;;;;;;;-144.99;79.26;52093.44;5083953;28;20665;-74
2021/06/18 03:39:13;;;;;;;21.23;19.03;;;;;;;-144.99;79.08;52093.44;5083258;28;20786;-74
2021/06/18 03:41:41;;;;;;;24.80;21.70;;;;;;;-144.99;79.03;52081.22;5083566;28;20288;-75
2021/06/18 03:44:08;;;;;;;23.90;21.43;;;;;;;-144.99;79.00;52085.31;5083358;28;20898;-74
2021/06/18 03:46:38;;;;;;;24.47;21.90;;;;;;;-144.99;78.73;52069.00;5085799;28;20283;-74
2021/06/18 03:49:07;;;;;;;23.63;20.17;;;;;;;-144.99;78.70;52099.56;5081851;28;20588;-74
2021/06/18 03:51:36;;;;;;;24.47;21.87;;;;;;;-144.99;78.63;52044.53;5085083;28;20270;-76
2021/06/18 03:54:04;;;;;;;24.07;21.77;;;;;;;-144.99;78.63;52109.75;5084761;28;20229;-72
2021/06/18 03:56:31;;;;;;;23.80;19.67;;;;;;;-144.99;78.44;52040.47;5085201;28;20215;-74
2021/06/18 03:59:00;;;;;;;26.30;20.27;;;;;;;-144.99;78.41;52056.78;5081993;28;20235;-71
2021/06/18 04:01:28;;;;;;;22.67;19.33;;;;;;;-144.99;78.26;52064.91;5083855;28;20519;-72
2021/06/18 04:03:55;;;;;;;25.43;21.87;;;;;;;-144.99;77.97;52073.06;5086240;28;20209;-74
2021/06/18 04:06:23;;;;;;;21.67;17.77;;;;;;;-144.99;77.85;52064.91;5084148;28;20698;-74
2021/06/18 04:08:51;;;;;;;22.20;19.90;;;;;;;-144.99;77.59;52081.22;5082445;28;20211;-75
2021/06/18 04:11:18;;;;;;;19.70;17.27;;;;;;;-144.99;77.56;52064.91;5086146;28;20224;-73
2021/06/18 04:13:45;;;;;;;20.70;18.43;;;;;;;-144.99;77.32;52016.00;5083920;28;20572;-74
2021/06/18 04:16:14;;;;;;;27.03;22.27;;;;;;;-144.99;77.23;52085.31;5084268;28;20666;-74
2021/06/18 04:18:43;;;;;;;22.67;19.80;;;;;;;-144.99;77.08;52069.00;5081019;28;20262;-71
2021/06/18 04:21:13;;;;;;;21.53;19.23;;;;;;;-144.99;76.89;52060.84;5084703;28;20224;-74
2021/06/18 04:23:40;;;;;;;21.80;18.17;;;;;;;-144.99;76.75;52064.91;5082699;28;20223;-71
2021/06/18 04:26:06;;;;;;;22.87;19.87;;;;;;;-144.99;76.68;52097.53;5083916;28;20216;-71
2021/06/18 04:28:33;;;;;;;22.30;19.80;;;;;;;-144.99;76.45;52089.38;5084094;28;20320;-72
2021/06/18 04:31:00;;;;;;;22.67;20.23;;;;;;;-144.99;76.15;52056.78;5082902;28;20218;-71
2021/06/18 04:33:28;;;;;;;25.83;23.00;;;;;;;-144.99;75.95;52040.47;5085422;28;20255;-71
2021/06/18 04:35:55;;;;;;;21.73;19.10;;;;;;;-144.99;75.58;52032.31;5085339;28;20228;-70
2021/06/18 04:38:22;;;;;;;23.10;18.73;;;;;;;-144.99;75.43;52058.81;5084723;28;20230;-71
2021/06/18 04:40:50;;;;;;;19.07;16.93;;;;;;;-144.99;75.12;52052.69;5086009;28;20222;-72
2021/06/18 04:43:17;;;;;;;17.13;15.40;;;;;;;-144.99;74.82;52054.72;5085542;28;20234;-72
2021/06/18 04:45:44;;;;;;;19.60;16.87;;;;;;;-144.99;74.71;52056.78;5088781;28;20224;-72
2021/06/18 04:48:11;;;;;;;20.70;18.80;;;;;;;-144.99;74.59;52052.69;5080174;28;20231;-74
2021/06/18 04:50:40;;;;;;;19.87;16.77;;;;;;;-144.99;74.43;52048.63;5079524;28;20471;-72
2021/06/18 04:53:10;;;;;;;18.47;16.73;;;;;;;-144.99;74.39;52044.53;5082358;28;20316;-74
2021/06/18 04:55:37;;;;;;;22.53;18.90;;;;;;;-144.99;73.85;52056.78;5084047;28;20216;-71
2021/06/18 04:58:04;;;;;;;21.37;19.13;;;;;;;-144.99;73.89;52060.84;5097945;28;20660;-73
2021/06/18 05:00:32;;;;;;;24.60;22.03;;;;;;;-144.99;73.86;52044.53;5080817;28;20233;-73
2021/06/18 05:02:59;;;;;;;18.57;15.83;;;;;;;-144.99;73.96;52069.00;5084084;28;20719;-77
2021/06/18 05:05:26;;;;;;;17.57;15.77;;;;;;;-144.99;73.80;52073.06;5087635;28;20289;-78
2021/06/18 05:07:55;;;;;;;16.37;14.70;;;;;;;-144.99;73.92;52052.69;5097347;28;20283;-77
2021/06/18 05:10:22;;;;;;;16.83;15.10;;;;;;;-144.99;73.71;52089.38;5082636;28;20245;-77
2021/06/18 05:12:50;;;;;;;19.40;17.37;;;;;;;-144.99;73.59;52058.81;5089107;28;20626;-76
2021/06/18 05:15:17;;;;;;;19.20;17.40;;;;;;;-144.99;73.54;52073.06;5092715;28;20193;-76
2021/06/18 05:17:44;;;;;;;18.63;16.83;;;;;;;-144.99;73.41;52079.19;5088302;28;20211;-77
2021/06/18 05:20:13;;;;;;;14.10;12.60;;;;;;;-144.99;73.31;52032.31;5085456;28;20317;-77
2021/06/18 05:22:40;;;;;;;20.23;14.03;;;;;;;-144.99;73.22;52044.53;5083960;28;20570;-76
2021/06/18 05:25:10;;;;;;;18.77;16.80;;;;;;;-144.99;72.75;52024.16;5084061;28;20268;-75
2021/06/18 05:27:37;;;;;;;16.60;14.20;;;;;;;-144.99;72.68;52036.38;5088128;28;20211;-78
2021/06/18 05:30:07;;;;;;;18.70;16.70;;;;;;;-144.99;72.29;52052.69;5084208;28;20241;-77
2021/06/18 05:32:34;;;;;;;15.07;13.30;;;;;;;-144.99;72.15;52016.00;5089127;28;20314;-78
2021/06/18 05:35:00;;;;;;;15.83;14.07;;;;;;;-144.99;71.81;52056.78;5088189;28;20285;-77
2021/06/18 05:37:27;;;;;;;15.73;12.13;;;;;;;-144.99;71.44;52046.56;5089478;28;20301;-76
2021/06/18 05:39:54;;;;;;;15.33;13.73;;;;;;;-144.99;71.03;52073.06;5089477;28;20316;-77
2021/06/18 05:42:22;;;;;;;16.50;13.73;;;;;;;-144.99;71.06;52044.53;5087821;28;20278;-77
2021/06/18 05:44:49;;;;;;;14.57;12.57;;;;;;;-144.99;70.78;52085.31;5085711;28;20216;-77
2021/06/18 05:47:16;;;;;;;13.50;10.83;;;;;;;-144.99;70.60;52052.69;5088492;28;20211;-76
2021/06/18 05:49:42;;;;;;;14.97;11.93;;;;;;;-144.99;70.42;52060.84;5088456;28;20612;-77
2021/06/18 05:52:09;;;;;;;14.00;11.67;;;;;;;-144.99;70.28;52052.69;5089674;28;20208;-77
2021/06/18 05:54:36;;;;;;;18.63;11.33;;;;;;;-144.99;69.61;52036.38;5090356;28;20650;-76
2021/06/18 05:57:03;;;;;;;12.40;9.30;;;;;;;-144.99;69.23;52052.69;5092024;28;20294;-78
2021/06/18 05:59:31;;;;;;;9.27;7.97;;;;;;;-144.99;69.21;52016.00;5092027;28;20236;-75
2021/06/18 06:01:58;;;;;;;14.13;11.27;;;;;;;-144.99;68.70;52036.38;5085562;28;20651;-76
2021/06/18 06:04:25;;;;;;;14.50;9.07;;;;;;;-144.99;68.34;52042.50;5085841;28;20251;-75
2021/06/18 06:06:51;;;;;;;14.53;10.03;;;;;;;-144.99;68.01;52036.38;5083354;28;20216;-74
2021/06/18 06:09:18;;;;;;;11.33;9.20;;;;;;;-144.99;66.98;51993.59;5084328;28;20243;-76
2021/06/18 06:11:45;;;;;;;10.87;8.53;;;;;;;-144.99;66.48;52020.09;5086885;28;20229;-75
2021/06/18 06:14:16;;;;;;;14.80;10.07;;;;;;;-144.99;66.24;52046.56;5083341;28;20220;-74
2021/06/18 06:16:45;;;;;;;14.00;8.97;;;;;;;-144.99;66.02;51991.56;5084617;28;20288;-77
2021/06/18 06:19:13;;;;;;;13.03;9.43;;;;;;;-144.99;65.50;52003.78;5087814;28;20234;-77
2021/06/18 06:21:40;;;;;;;11.73;8.50;;;;;;;-144.99;64.89;52020.09;5090658;28;20784;-77
2021/06/18 06:24:08;;;;;;;13.70;10.57;;;;;;;-144.99;64.51;52048.63;5090643;28;20233;-75
2021/06/18 06:26:35;;;;;;;10.23;9.13;;;;;;;-144.99;63.40;52016.00;5090957;28;20579;-75
2021/06/18 06:29:04;;;;;;;10.37;9.27;;;;;;;-144.99;63.03;52020.09;5092292;28;20213;-76
2021/06/18 06:31:31;;;;;;;14.37;11.13;;;;;;;-144.99;62.40;52016.00;5091723;28;20235;-75
2021/06/18 06:33:59;;;;;;;9.73;8.70;;;;;;;-144.99;61.50;52016.00;5087507;28;20233;-75
2021/06/18 06:36:26;;;;;;;9.07;7.87;;;;;;;-144.99;61.36;52028.22;5088743;28;20391;-76
2021/06/18 06:38:53;;;;;;;10.93;8.57;;;;;;;-144.99;61.05;51999.69;5088517;28;20275;-75
2021/06/18 06:41:20;;;;;;;12.57;9.97;;;;;;;-144.99;60.80;51983.41;5091202;28;20211;-77
2021/06/18 06:43:46;;;;;;;10.23;9.03;;;;;;;-144.99;60.48;52007.84;5090784;28;20321;-77
2021/06/18 06:46:13;;;;;;;12.37;10.63;;;;;;;-144.99;60.04;51991.56;5091928;28;20234;-77
2021/06/18 06:48:40;;;;;;;13.20;9.27;;;;;;;-144.99;60.25;51995.63;5088754;28;20238;-74
2021/06/18 06:51:08;;;;;;;14.90;8.07;;;;;;;-144.99;59.74;51960.97;5089192;28;20232;-79
2021/06/18 06:53:35;;;;;;;10.37;8.43;;;;;;;-144.99;59.06;51979.31;5083497;28;20291;-79
2021/06/18 06:56:03;;;;;;;8.80;7.90;;;;;;;-144.99;59.08;51971.16;5085696;28;20289;-77
2021/06/18 06:58:30;;;;;;;9.93;8.80;;;;;;;-144.99;59.03;52036.38;5089719;28;20260;-77
2021/06/18 07:00:57;;;;;;;11.90;6.70;;;;;;;-144.99;58.93;51983.41;5090485;28;20702;-81
2021/06/18 07:03:24;;;;;;;15.00;11.27;;;;;;;-144.99;58.00;51979.31;5092188;28;20228;-77
2021/06/18 07:05:51;;;;;;;12.83;8.07;;;;;;;-144.99;57.79;51999.69;5087928;28;20398;-77
2021/06/18 07:08:21;;;;;;;7.83;7.03;;;;;;;-144.99;56.83;51991.56;5089560;28;20209;-80
2021/06/18 07:10:48;;;;;;;10.57;7.20;;;;;;;-144.99;57.74;51954.88;5096093;28;20269;-82
2021/06/18 07:13:16;;;;;;;9.07;7.70;;;;;;;-144.99;57.94;52003.78;5094648;28;20228;-82
2021/06/18 07:15:45;;;;;;;10.03;8.73;;;;;;;-144.99;58.07;52003.78;5106968;28;20216;-81
2021/06/18 07:18:12;;;;;;;12.23;9.83;;;;;;;-144.99;58.14;51967.09;5110617;28;20229;-83
2021/06/18 07:20:39;;;;;;;11.23;9.33;;;;;;;-144.99;57.38;51958.94;5111536;28;20220;-83
2021/06/18 07:23:06;;;;;;;11.97;8.63;;;;;;;-144.99;56.90;51975.25;5110585;28;20209;-82
2021/06/18 07:25:34;;;;;;;10.00;7.90;;;;;;;-144.99;56.68;51942.63;5112295;28;20214;-84
2021/06/18 07:28:01;;;;;;;9.17;8.20;;;;;;;-144.99;56.25;51995.63;5095643;28;20223;-82
2021/06/18 07:30:28;;;;;;;9.77;8.77;;;;;;;-144.99;55.60;51975.25;5084740;28;20287;-83
2021/06/18 07:32:54;;;;;;;10.90;8.77;;;;;;;-144.99;55.60;51969.13;5097477;28;20216;-83
2021/06/18 07:35:21;;;;;;;11.57;8.87;;;;;;;-144.99;55.57;51934.50;5102550;28;20262;-83
2021/06/18 07:37:48;;;;;;;15.30;8.50;;;;;;;-144.99;55.18;51958.94;5097490;28;20487;-84
2021/06/18 07:40:17;;;;;;;11.27;8.30;;;;;;;-144.99;54.87;51914.09;5097364;28;20726;-81
2021/06/18 07:42:46;;;;;;;9.00;7.43;;;;;;;-144.99;54.46;51934.50;5094440;28;20257;-81
2021/06/18 07:45:14;;;;;;;12.13;9.23;;;;;;;-144.99;54.55;51946.72;5100794;28;20457;-81
2021/06/18 07:47:42;;;;;;;8.17;7.03;;;;;;;-144.99;54.41;51971.16;5098891;28;20231;-81
2021/06/18 07:50:11;;;;;;;11.87;8.10;;;;;;;-144.99;53.91;51938.56;5089779;28;20541;-82
2021/06/18 07:52:38;;;;;;;10.53;7.27;;;;;;;-144.99;53.13;51934.50;5101805;28;20219;-82
2021/06/18 07:55:09;;;;;;;10.60;7.03;;;;;;;-144.99;53.21;51977.28;5103175;28;20238;-82
2021/06/18 07:57:36;;;;;;;14.53;7.83;;;;;;;-144.99;52.70;51934.50;5104328;28;20198;-81
2021/06/18 08:00:05;;;;;;;9.83;7.97;;;;;;;-144.99;52.03;51926.34;5100369;28;20283;-82
2021/06/18 08:02:32;;;;;;;16.60;8.93;;;;;;;-144.99;51.97;51944.69;5096604;28;20739;-85
2021/06/18 08:04:59;;;;;;;10.10;6.80;;;;;;;-144.99;52.16;51938.56;4747977;28;10000119;-82
2021/06/18 08:07:26;;;;;;;13.43;8.60;;;;;;;-144.99;51.68;51963.03;5095693;28;20283;-84
2021/06/18 08:09:53;;;;;;;9.53;7.50;;;;;;;-144.99;51.65;51897.81;5084999;28;20342;-84
2021/06/18 08:12:21;;;;;;;10.80;9.00;;;;;;;-144.99;51.77;51914.09;5100049;28;20218;-83
2021/06/18 08:14:48;;;;;;;10.43;8.90;;;;;;;-144.99;52.04;51910.03;5102278;28;20236;-84
2021/06/18 08:17:16;;;;;;;13.10;7.87;;;;;;;-144.99;51.28;51930.41;5104164;28;20219;-82
2021/06/18 08:19:43;;;;;;;10.73;8.73;;;;;;;-144.99;51.03;51942.63;5090356;28;20216;-83
2021/06/18 08:22:11;;;;;;;14.20;7.90;;;;;;;-144.99;51.06;51946.72;5100618;28;20249;-83
2021/06/18 08:24:39;;;;;;;10.20;7.43;;;;;;;-144.99;50.69;51901.88;5108097;28;20257;-84
2021/06/18 08:27:07;;;;;;;13.53;7.73;;;;;;;-144.99;49.89;51916.16;5098500;28;20207;-80
2021/06/18 08:29:34;;;;;;;12.87;8.30;;;;;;;-144.99;49.83;51897.81;5089850;28;20255;-82
2021/06/18 08:32:00;;;;;;;9.13;7.30;;;;;;;-144.99;49.50;51910.03;5087215;28;20238;-84
2021/06/18 08:34:29;;;;;;;15.30;8.23;;;;;;;-144.99;49.95;51885.56;5099657;28;20266;-81
2021/06/18 08:36:56;;;;;;;10.73;7.83;;;;;;;-144.99;49.56;51885.56;5098858;28;20216;-82
2021/06/18 08:39:23;;;;;;;10.33;5.90;;;;;;;-144.99;49.22;51926.34;5096836;28;20899;-79
2021/06/18 08:41:51;;;;;;;8.87;7.33;;;;;;;-144.99;49.08;51861.13;5103513;28;20218;-79
2021/06/18 08:44:18;;;;;;;8.77;7.40;;;;;;;-144.99;48.89;51901.88;5105854;28;20267;-84
2021/06/18 08:46:45;;;;;;;7.87;6.73;;;;;;;-144.99;48.43;51910.03;5107071;28;20211;-83
2021/06/18 08:49:12;;;;;;;10.47;7.73;;;;;;;-144.99;48.75;51893.72;5105315;28;20216;-82
2021/06/18 08:51:41;;;;;;;11.77;8.23;;;;;;;-144.99;48.99;51893.72;5107361;28;20203;-86
2021/06/18 08:54:08;;;;;;;11.90;7.37;;;;;;;-144.99;48.46;51893.72;5102971;28;20701;-79
2021/06/18 08:56:35;;;;;;;9.63;7.77;;;;;;;-144.99;48.33;51905.97;5099269;28;20224;-81
2021/06/18 08:59:02;;;;;;;9.77;6.80;;;;;;;-144.99;48.24;51922.25;5099352;28;20212;-82
2021/06/18 09:01:29;;;;;;;11.03;8.50;;;;;;;-144.99;47.96;51869.28;5100918;28;20203;-82
2021/06/18 09:03:56;;;;;;;11.57;9.30;;;;;;;-144.99;47.70;51924.28;5099542;28;20204;-82
2021/06/18 09:06:34;;;;;;;11.20;8.73;;;;;;;-144.99;48.38;51850.94;5099318;28;20286;-82
2021/06/18 09:09:21;;;;;;;12.57;8.57;;;;;;;-144.99;48.40;51861.13;5102611;28;20200;-81
2021/06/18 09:12:17;;;;;;;14.03;10.00;;;;;;;-144.99;48.46;51879.47;5101247;28;20211;-83
2021/06/18 09:14:43;;;;;;;10.30;8.90;;;;;;;-144.99;48.91;51848.91;4739915;28;10000155;-82
2021/06/18 09:17:17;;;;;;;8.30;7.53;;;;;;;-144.99;48.58;51877.44;5097298;28;20200;-82
2021/06/18 09:19:46;;;;;;;12.47;8.30;;;;;;;-144.99;48.05;51857.03;5099421;28;20236;-83
2021/06/18 09:22:14;;;;;;;9.80;6.93;;;;;;;-144.99;47.96;51855.00;5087302;28;20219;-83
2021/06/18 09:24:44;;;;;;;10.57;7.03;;;;;;;-144.99;47.75;51852.97;5099628;28;20223;-82
2021/06/18 09:27:12;;;;;;;11.20;8.10;;;;;;;-144.99;47.46;51885.56;5091650;28;20235;-82
2021/06/18 09:29:42;;;;;;;11.07;9.15;;;;;;;-144.99;46.68;51893.72;5092136;28;20228;-81
2021/06/18 09:32:13;;;;;;;9.27;8.18;;;;;;;-144.99;46.36;51869.28;5091621;28;20204;-76
2021/06/18 09:34:59;;;;;;;11.70;8.82;;;;;;;-144.99;46.30;51861.13;5085386;28;20236;-81
2021/06/18 09:37:34;;;;;;;8.05;7.28;;;;;;;-144.99;46.52;51893.72;5090800;28;20207;-81
2021/06/18 09:40:12;;;;;;;10.57;7.28;;;;;;;-144.99;45.57;51861.13;5085129;28;20250;-78
2021/06/18 09:42:50;;;;;;;10.60;8.90;;;;;;;-144.99;45.37;51840.75;5083611;28;20210;-79
2021/06/18 09:45:18;;;;;;;8.50;7.00;;;;;;;-144.99;45.12;51857.03;5081190;28;20203;-79
2021/06/18 09:47:45;;;;;;;8.38;7.18;;;;;;;-144.99;44.99;51861.13;5095303;28;20208;-79
2021/06/18 09:50:28;;;;;;;11.38;7.60;;;;;;;-144.99;45.02;51824.44;5090723;28;20586;-80
2021/06/18 09:53:13;;;;;;;13.65;9.85;;;;;;;-144.99;44.97;51877.44;5086706;28;20243;-80
2021/06/18 09:55:42;;;;;;;8.50;6.82;;;;;;;-144.99;44.79;51844.81;5092822;28;20644;-80
2021/06/18 09:58:10;;;;;;;8.38;7.57;;;;;;;-144.99;44.68;51828.50;5097800;28;20239;-80
2021/06/18 10:00:36;;;;;;;7.72;6.93;;;;;;;-144.99;44.44;51852.97;5093948;28;20339;-80
2021/06/18 10:03:04;;;;;;;8.90;7.15;;;;;;;-144.99;44.35;51852.97;5095890;28;20228;-79
2021/06/18 10:05:34;;;;;;;12.63;8.10;;;;;;;-144.99;44.04;51828.50;5089053;28;20458;-80
2021/06/18 10:08:03;;;;;;;8.43;6.80;;;;;;;-144.99;43.81;51820.38;5100646;28;20196;-81
2021/06/18 10:10:31;;;;;;;10.32;7.30;;;;;;;-144.99;43.74;51844.81;5101087;28;20263;-80
2021/06/18 10:13:01;;;;;;;10.02;6.57;;;;;;;-144.99;43.50;51828.50;5111260;28;20227;-82
2021/06/18 10:15:30;;;;;;;8.35;6.38;;;;;;;-144.99;42.82;51804.06;5109145;28;20231;-83
2021/06/18 10:17:59;;;;;;;10.75;8.90;;;;;;;-144.99;42.79;51799.97;5100043;28;20227;-79
2021/06/18 10:20:28;;;;;;;8.50;6.90;;;;;;;-144.99;42.55;51767.38;5102112;28;20238;-81
2021/06/18 10:22:58;;;;;;;9.63;7.60;;;;;;;-144.99;42.53;51797.94;5102303;28;20238;-80
2021/06/18 10:25:29;;;;;;;7.78;6.72;;;;;;;-144.99;42.28;51791.84;5100627;28;20212;-80
2021/06/18 10:27:57;;;;;;;8.65;7.13;;;;;;;-144.99;42.09;51808.13;5101369;28;20769;-79
2021/06/18 10:30:30;;;;;;;10.65;6.78;;;;;;;-144.99;41.85;51767.38;5101435;28;20223;-82
2021/06/18 10:33:00;;;;;;;9.40;6.90;;;;;;;-144.99;41.44;51787.75;5094727;28;20238;-79
2021/06/18 10:35:47;;;;;;;8.07;6.97;;;;;;;-144.99;41.50;51793.88;5092969;28;20628;-81
2021/06/18 10:38:16;;;;;;;8.50;7.43;;;;;;;-144.99;41.31;51783.69;5093360;28;20211;-83
2021/06/18 10:40:47;;;;;;;7.95;7.15;;;;;;;-144.99;41.31;51775.53;5090019;28;20242;-79
2021/06/18 10:43:15;;;;;;;9.00;7.50;;;;;;;-144.99;41.25;51775.53;5092472;28;20282;-78
2021/06/18 10:46:15;;;;;;;8.07;6.85;;;;;;;-144.99;41.22;51740.88;5102930;28;20255;-81
2021/06/18 10:49:11;;;;;;;8.20;6.20;;;;;;;-144.99;41.14;51747.00;5099844;28;20421;-81
2021/06/18 10:51:44;;;;;;;9.20;7.25;;;;;;;-144.99;41.00;51742.91;5091528;28;20226;-79
2021/06/18 10:54:16;;;;;;;13.57;7.25;;;;;;;-144.99;40.45;51757.19;5095453;28;20232;-79
2021/06/18 10:57:14;;;;;;;10.70;8.02;;;;;;;-144.99;40.44;51726.63;5096847;28;20302;-80
2021/06/18 10:59:44;;;;;;;12.13;7.28;;;;;;;-144.99;40.21;51730.69;5092855;28;20243;-81
2021/06/18 11:02:40;;;;;;;9.48;7.53;;;;;;;-144.99;40.26;51714.41;5088823;28;20702;-80
2021/06/18 11:05:29;;;;;;;10.63;7.50;;;;;;;-144.99;40.52;51714.41;5093687;28;20212;-79
2021/06/18 11:08:29;;;;;;;9.85;6.75;;;;;;;-144.99;40.25;51712.34;5085684;28;20200;-79
2021/06/18 11:10:59;;;;;;;10.98;7.45;;;;;;;-144.99;40.12;51734.78;5083614;28;20761;-78
2021/06/18 11:13:27;;;;;;;9.50;6.93;;;;;;;-144.99;40.06;51714.41;5086063;28;20269;-81
2021/06/18 11:15:54;;;;;;;10.32;6.55;;;;;;;-144.99;39.29;51714.41;5084365;28;20227;-80
2021/06/18 11:18:36;;;;;;;10.20;8.63;;;;;;;-144.99;39.04;51673.63;5094486;28;20204;-80